createdAt,value
2024-04-25T00:07:02.254Z,98981.92
2024-04-25T00:10:31.893Z,98978.73
2024-04-25T00:18:07.358Z,98974.02
2024-04-25T00:21:35.854Z,98967.30
2024-04-25T00:32:33.326Z,98977.15
2024-04-25T00:36:06.207Z,98978.55
2024-04-25T00:43:44.871Z,98973.91
2024-04-25T00:51:10.514Z,98973.09
2024-04-25T00:54:39.414Z,98974.41
2024-04-25T00:58:07.866Z,98966.80
2024-04-25T01:01:35.248Z,98966.66
2024-04-25T01:05:02.745Z,98965.25
2024-04-25T01:12:22.836Z,98968.70
2024-04-25T01:15:53.814Z,98965.60
2024-04-25T01:19:26.203Z,98967.33
2024-04-25T01:26:47.094Z,98966.58
2024-04-25T01:30:19.201Z,98966.00
2024-04-25T01:33:45.596Z,98966.20
2024-04-25T01:41:06.140Z,98967.50
2024-04-25T01:44:33.991Z,98967.41
2024-04-25T01:55:44.937Z,98950.58
2024-04-25T01:59:26.384Z,98954.27
2024-04-25T02:02:53.952Z,98955.18
2024-04-25T02:14:00.502Z,98961.90
2024-04-25T02:17:27.962Z,98959.39
2024-04-25T02:21:00.393Z,98959.84
2024-04-25T02:24:26.419Z,98960.80
2024-04-25T02:27:57.195Z,98962.22
2024-04-25T02:31:34.797Z,98959.83
2024-04-25T02:38:45.902Z,98961.48
2024-04-25T02:42:18.100Z,98963.02
2024-04-25T02:45:49.850Z,98970.17
2024-04-25T02:49:21.924Z,98970.52
2024-04-25T02:52:49.784Z,98968.13
2024-04-25T03:00:06.072Z,98970.38
2024-04-25T03:03:38.450Z,98977.35
2024-04-25T03:18:38.936Z,98982.98
2024-04-25T03:26:00.713Z,98998.96
2024-04-25T03:29:29.170Z,99002.77
2024-04-25T03:36:58.284Z,99002.85
2024-04-25T03:40:31.195Z,99004.59
2024-04-25T03:44:02.051Z,99005.91
2024-04-25T03:47:29.457Z,99004.69
2024-04-25T03:51:03.464Z,99005.02
2024-04-25T03:58:25.509Z,99009.65
2024-04-25T04:01:58.945Z,99012.83
2024-04-25T04:05:27.488Z,99014.25
2024-04-25T04:08:55.512Z,99023.08
2024-04-25T04:16:16.186Z,99023.20
2024-04-25T04:19:44.015Z,99029.39
2024-04-25T04:23:10.296Z,99027.88
2024-04-25T04:26:41.637Z,99025.27
2024-04-25T04:30:09.108Z,99028.23
2024-04-25T04:37:26.715Z,99028.08
2024-04-25T04:40:54.111Z,99033.29
2024-04-25T04:44:22.306Z,99031.42
2024-04-25T04:47:50.816Z,99033.11
2024-04-25T04:51:23.075Z,99036.95
2024-04-25T04:54:50.675Z,99038.27
2024-04-25T04:58:03.953Z,99042.69
2024-04-25T05:01:36.018Z,99047.20
2024-04-25T05:05:05.140Z,99051.02
2024-04-25T05:08:35.245Z,99056.80
2024-04-25T05:12:06.743Z,99056.04
2024-04-25T05:15:38.989Z,99058.80
2024-04-25T05:19:09.584Z,99062.34
2024-04-25T05:22:21.493Z,99071.61
2024-04-25T05:25:53.836Z,99074.16
2024-04-25T05:29:21.222Z,99078.79
2024-04-25T05:36:36.449Z,99091.40
2024-04-25T05:43:51.311Z,99103.39
2024-04-25T05:47:22.305Z,99105.02
2024-04-25T05:50:47.327Z,99115.26
2024-04-25T05:54:14.797Z,99118.75
2024-04-25T05:57:31.263Z,99123.12
2024-04-25T06:00:35.347Z,99127.09
2024-04-25T06:04:02.898Z,99131.34
2024-04-25T06:07:20.335Z,99135.98
2024-04-25T06:10:27.164Z,99143.16
2024-04-25T06:13:39.981Z,99152.63
2024-04-25T06:16:57.490Z,99156.83
2024-04-25T06:20:27.254Z,99157.63
2024-04-25T06:23:47.976Z,99161.95
2024-04-25T06:27:13.580Z,99167.15
2024-04-25T06:30:41.473Z,99171.98
2024-04-25T06:34:02.380Z,99174.69
2024-04-25T06:37:22.812Z,99178.97
2024-04-25T06:40:48.195Z,99190.17
2024-04-25T06:44:26.665Z,99188.81
2024-04-25T06:47:57.152Z,99194.60
2024-04-25T06:59:19.310Z,99197.89
2024-04-25T07:06:43.640Z,99212.64
2024-04-25T07:14:05.190Z,99224.11
2024-04-25T07:17:32.612Z,99221.65
2024-04-25T07:21:05.095Z,99233.40
2024-04-25T07:24:34.558Z,99231.55
2024-04-25T07:36:01.448Z,99247.77
2024-04-25T07:39:29.917Z,99250.77
2024-04-25T07:43:03.183Z,99250.75
2024-04-25T07:50:20.501Z,99257.91
2024-04-25T07:53:48.073Z,99266.36
2024-04-25T07:57:20.031Z,99271.38
2024-04-25T08:00:50.399Z,99273.30
2024-04-25T08:12:04.002Z,99284.93
2024-04-25T08:15:31.688Z,99291.00
2024-04-25T08:19:03.054Z,99298.00
2024-04-25T08:22:29.804Z,99299.91
2024-04-25T08:29:55.526Z,99306.90
2024-04-25T08:37:16.446Z,99313.85
2024-04-25T08:40:44.916Z,99312.66
2024-04-25T08:44:14.040Z,99314.27
2024-04-25T08:51:35.987Z,99321.77
2024-04-25T08:55:03.716Z,99328.61
2024-04-25T08:58:24.315Z,99341.85
2024-04-25T09:01:59.741Z,99350.75
2024-04-25T09:05:28.241Z,99357.70
2024-04-25T09:08:54.809Z,99359.66
2024-04-25T09:12:25.359Z,99365.45
2024-04-25T09:15:53.974Z,99365.09
2024-04-25T09:19:21.351Z,99371.63
2024-04-25T09:22:49.079Z,99371.59
2024-04-25T09:26:16.661Z,99374.00
2024-04-25T09:29:48.815Z,99378.42
2024-04-25T09:33:17.563Z,99386.68
2024-04-25T09:36:45.183Z,99384.27
2024-04-25T09:40:13.018Z,99385.09
2024-04-25T09:43:40.323Z,99387.54
2024-04-25T09:46:59.557Z,99391.23
2024-04-25T09:50:32.310Z,99398.62
2024-04-25T09:53:59.710Z,99404.60
2024-04-25T09:57:27.093Z,99407.21
2024-04-25T10:00:54.552Z,99422.95
2024-04-25T10:04:24.114Z,99427.86
2024-04-25T10:07:42.298Z,99433.73
2024-04-25T10:11:12.488Z,99433.54
2024-04-25T10:18:31.910Z,99449.52
2024-04-25T10:21:59.826Z,99451.79
2024-04-25T10:25:28.484Z,99461.40
2024-04-25T10:29:04.501Z,99463.38
2024-04-25T10:32:33.302Z,99471.52
2024-04-25T10:35:45.058Z,99475.75
2024-04-25T10:39:08.346Z,99484.23
2024-04-25T10:42:33.428Z,99489.38
2024-04-25T10:46:00.777Z,99499.21
2024-04-25T10:49:28.258Z,99503.55
2024-04-25T10:52:58.163Z,99507.52
2024-04-25T10:56:17.964Z,99512.21
2024-04-25T10:59:34.096Z,99515.46
2024-04-25T11:03:01.607Z,99518.45
2024-04-25T11:06:36.923Z,99523.13
2024-04-25T11:10:04.774Z,99530.64
2024-04-25T11:17:11.243Z,99535.44
2024-04-25T11:20:21.912Z,99541.15
2024-04-25T11:23:59.345Z,99541.67
2024-04-25T11:27:16.799Z,99541.66
2024-04-25T11:30:29.798Z,99547.59
2024-04-25T11:33:54.643Z,99550.70
2024-04-25T11:40:58.161Z,99557.61
2024-04-25T11:44:08.765Z,99561.96
2024-04-25T11:47:36.328Z,99566.96
2024-04-25T11:50:55.046Z,99570.90
2024-04-25T11:54:21.658Z,99573.69
2024-04-25T11:57:49.076Z,99577.65
2024-04-25T12:01:21.611Z,99584.71
2024-04-25T12:04:49.178Z,99592.08
2024-04-25T12:08:15.726Z,99600.52
2024-04-25T12:11:46.854Z,99603.94
2024-04-25T12:15:08.418Z,99597.80
2024-04-25T12:18:40.796Z,99610.30
2024-04-25T12:22:02.148Z,99623.57
2024-04-25T12:25:16.940Z,99631.94
2024-04-25T12:28:45.392Z,99633.98
2024-04-25T12:32:29.157Z,99637.07
2024-04-25T12:35:49.456Z,99635.94
2024-04-25T12:39:23.581Z,99636.09
2024-04-25T12:42:44.077Z,99633.68
2024-04-25T12:46:04.402Z,99633.32
2024-04-25T12:49:31.959Z,99636.21
2024-04-25T12:53:04.118Z,99640.05
2024-04-25T12:56:36.926Z,99648.85
2024-04-25T13:00:03.514Z,99656.13
2024-04-25T13:03:40.038Z,99658.86
2024-04-25T13:07:06.356Z,99665.56
2024-04-25T13:10:34.181Z,99670.23
2024-04-25T13:13:54.343Z,99677.48
2024-04-25T13:17:23.308Z,99685.15
2024-04-25T13:20:51.033Z,99688.85
2024-04-25T13:24:20.964Z,99691.98
2024-04-25T13:27:40.830Z,99694.48
2024-04-25T13:31:08.131Z,99699.28
2024-04-25T13:34:22.957Z,99707.98
2024-04-25T13:37:57.410Z,99707.65
2024-04-25T13:41:16.430Z,99715.66
2024-04-25T13:44:47.664Z,99721.85
2024-04-25T13:47:55.237Z,99727.14
2024-04-25T13:50:45.341Z,99723.66
2024-04-25T13:54:16.383Z,99732.61
2024-04-25T13:57:44.039Z,99735.71
2024-04-25T14:01:11.549Z,99735.23
2024-04-25T14:04:43.386Z,99741.63
2024-04-25T14:08:11.822Z,99749.48
2024-04-25T14:11:33.161Z,99758.70
2024-04-25T14:15:01.366Z,99759.55
2024-04-25T14:18:33.707Z,99750.79
2024-04-25T14:22:04.390Z,99750.32
2024-04-25T14:25:30.370Z,99762.44
2024-04-25T14:29:07.360Z,99768.80
2024-04-25T14:32:39.952Z,99774.73
2024-04-25T14:36:07.462Z,99785.64
2024-04-25T14:43:20.019Z,99778.11
2024-04-25T14:46:47.424Z,99791.88
2024-04-25T14:57:45.672Z,99791.79
2024-04-25T15:01:17.781Z,99793.98
2024-04-25T15:04:45.615Z,99794.59
2024-04-25T15:08:11.856Z,99784.61
2024-04-25T15:11:39.288Z,99777.02
2024-04-25T15:15:12.363Z,99779.91
2024-04-25T15:18:37.019Z,99785.95
2024-04-25T15:22:06.199Z,99782.70
2024-04-25T15:25:38.504Z,99787.08
2024-04-25T15:28:59.966Z,99784.98
2024-04-25T15:32:26.376Z,99791.16
2024-04-25T15:35:50.341Z,99795.64
2024-04-25T15:39:25.074Z,99797.77
2024-04-25T15:42:52.370Z,99803.31
2024-04-25T15:46:23.857Z,99802.84
2024-04-25T15:53:44.633Z,99790.44
2024-04-25T15:57:08.876Z,99788.82
2024-04-25T16:04:27.874Z,99794.45
2024-04-25T16:07:41.696Z,99786.39
2024-04-25T16:11:05.593Z,99785.29
2024-04-25T16:26:12.308Z,99788.18
2024-04-25T16:29:39.725Z,99795.77
2024-04-25T16:33:06.270Z,99800.39
2024-04-25T16:36:41.316Z,99799.86
2024-04-25T16:40:13.696Z,99808.89
2024-04-25T16:43:39.853Z,99806.80
2024-04-25T16:47:00.271Z,99810.30
2024-04-25T16:50:27.709Z,99813.39
2024-04-25T16:53:59.986Z,99811.20
2024-04-25T16:57:27.350Z,99809.90
2024-04-25T17:00:54.853Z,99816.77
2024-04-25T17:04:22.317Z,99820.37
2024-04-25T17:08:01.794Z,99825.73
2024-04-25T17:11:33.303Z,99820.33
2024-04-25T17:15:04.786Z,99825.36
2024-04-25T17:18:31.246Z,99822.61
2024-04-25T17:21:58.655Z,99819.92
2024-04-25T17:25:26.400Z,99824.77
2024-04-25T17:28:59.660Z,99828.19
2024-04-25T17:36:24.323Z,99830.90
2024-04-25T17:43:51.349Z,99848.60
2024-04-25T17:51:11.447Z,99861.17
2024-04-25T17:54:31.020Z,99867.41
2024-04-25T17:57:58.393Z,99863.86
2024-04-25T18:01:25.936Z,99859.79
2024-04-25T18:04:53.377Z,99863.84
2024-04-25T18:12:26.320Z,99861.90
2024-04-25T18:15:53.796Z,99872.19
2024-04-25T18:19:20.995Z,99875.56
2024-04-25T18:22:42.059Z,99879.02
2024-04-25T18:26:02.122Z,99878.23
2024-04-25T18:29:29.547Z,99886.31
2024-04-25T18:32:57.473Z,99890.28
2024-04-25T18:36:25.033Z,99894.05
2024-04-25T18:43:43.559Z,99906.36
2024-04-25T18:47:15.584Z,99905.86
2024-04-25T18:54:40.278Z,99909.52
2024-04-25T19:01:58.288Z,99906.39
2024-04-25T19:05:17.199Z,99909.98
2024-04-25T19:08:41.142Z,99910.23
2024-04-25T19:12:08.818Z,99916.20
2024-04-25T19:15:26.968Z,99915.38
2024-04-25T19:18:54.306Z,99919.86
2024-04-25T19:22:22.828Z,99923.42
2024-04-25T19:25:50.213Z,99938.23
2024-04-25T19:29:17.862Z,99943.34
2024-04-25T19:32:50.864Z,99941.77
2024-04-25T19:40:24.566Z,99938.45
2024-04-25T19:43:56.398Z,99938.61
2024-04-25T19:47:23.986Z,99933.73
2024-04-25T19:50:51.690Z,99934.02
2024-04-25T19:54:27.398Z,99931.30
2024-04-25T19:57:56.011Z,99927.73
2024-04-25T20:01:23.509Z,99925.72
2024-04-25T20:08:48.093Z,99926.77
2024-04-25T20:12:20.738Z,99931.34
2024-04-25T20:19:30.740Z,99927.55
2024-04-25T20:23:01.579Z,99930.91
2024-04-25T20:26:27.914Z,99935.40
2024-04-25T20:29:48.382Z,99940.47
2024-04-25T20:33:15.430Z,99944.52
2024-04-25T20:36:46.491Z,99945.62
2024-04-25T20:40:18.144Z,99947.98
2024-04-25T20:43:45.579Z,99951.23
2024-04-25T20:47:04.612Z,99953.02
2024-04-25T20:54:49.642Z,99958.22
2024-04-25T20:58:22.654Z,99962.98
2024-04-25T21:05:49.030Z,99971.45
2024-04-25T21:09:25.653Z,99973.43
2024-04-25T21:20:36.689Z,99981.16
2024-04-25T21:24:04.132Z,99985.36
2024-04-25T21:27:36.517Z,99986.48
2024-04-25T21:31:04.348Z,99984.81
2024-04-25T21:38:23.063Z,99985.20
2024-04-25T21:41:50.868Z,99984.87
2024-04-25T21:45:23.553Z,99986.30
2024-04-25T21:52:46.252Z,99991.06
2024-04-25T22:00:21.542Z,99991.02
2024-04-25T22:03:44.974Z,99990.95
2024-04-25T22:07:12.382Z,99990.84
2024-04-25T22:10:44.607Z,99987.65
2024-04-25T22:14:12.091Z,99984.45
2024-04-25T22:17:44.852Z,99987.23
2024-04-25T22:24:44.333Z,99986.21
2024-04-25T22:35:54.266Z,99981.95
2024-04-25T22:43:11.356Z,99987.27
2024-04-25T22:58:31.342Z,99985.64
2024-04-25T23:01:59.712Z,99987.23
2024-04-25T23:09:28.530Z,99992.26
2024-04-25T23:13:01.102Z,99990.11
2024-04-25T23:20:04.467Z,99987.80
2024-04-25T23:23:31.898Z,99988.36
2024-04-25T23:38:56.445Z,99982.69
2024-04-25T23:46:19.301Z,99982.39
2024-04-25T23:57:50.932Z,99984.15
